createdAt,value
2018-04-24T00:00:49.813Z,80.92
2018-04-24T00:01:49.867Z,80.92
2018-04-24T00:03:42.850Z,80.92
2018-04-24T00:04:42.912Z,80.92
2018-04-24T00:06:35.910Z,81.02
2018-04-24T00:07:35.956Z,81.30
2018-04-24T00:09:28.940Z,81.21
2018-04-24T00:10:29.000Z,81.21
2018-04-24T00:12:21.999Z,81.21
2018-04-24T00:13:22.050Z,81.12
2018-04-24T00:15:15.035Z,81.30
2018-04-24T00:16:15.097Z,80.92
2018-04-24T00:18:08.090Z,81.21
2018-04-24T00:19:08.141Z,81.21
2018-04-24T00:21:01.140Z,81.21
2018-04-24T00:22:01.191Z,81.12
2018-04-24T00:23:54.178Z,81.63
2018-04-24T00:24:54.246Z,81.06
2018-04-24T00:26:47.232Z,80.87
2018-04-24T00:27:47.292Z,80.92
2018-04-24T00:29:40.265Z,80.83
2018-04-24T00:30:40.326Z,81.02
2018-04-24T00:32:33.321Z,80.92
2018-04-24T00:33:33.373Z,81.68
2018-04-24T00:35:26.359Z,80.92
2018-04-24T00:36:26.420Z,81.02
2018-04-24T00:38:19.426Z,81.30
2018-04-24T00:39:19.466Z,81.59
2018-04-24T00:41:12.461Z,81.59
2018-04-24T00:42:12.509Z,81.49
2018-04-24T00:44:05.500Z,81.59
2018-04-24T00:45:05.554Z,81.59
2018-04-24T00:46:58.550Z,81.59
2018-04-24T00:47:58.599Z,81.97
2018-04-24T00:49:51.583Z,81.49
2018-04-24T00:50:51.643Z,81.49
2018-04-24T00:52:44.638Z,81.49
2018-04-24T00:53:44.686Z,81.78
2018-04-24T00:55:37.673Z,81.68
2018-04-24T00:56:37.733Z,82.17
2018-04-24T00:58:30.728Z,81.97
2018-04-24T00:59:30.776Z,81.97
2018-04-24T01:01:23.774Z,81.97
2018-04-24T01:02:23.826Z,81.59
2018-04-24T01:04:16.812Z,82.07
2018-04-24T01:05:16.872Z,81.78
2018-04-24T01:07:09.866Z,82.07
2018-04-24T01:08:09.919Z,82.64
2018-04-24T01:10:02.907Z,82.07
2018-04-24T01:11:02.964Z,82.54
2018-04-24T01:12:55.959Z,81.68
2018-04-24T01:13:56.009Z,82.07
2018-04-24T01:15:48.992Z,81.68
2018-04-24T01:16:49.052Z,82.35
2018-04-24T01:18:42.048Z,82.35
2018-04-24T01:19:42.098Z,81.97
2018-04-24T01:21:35.091Z,81.68
2018-04-24T01:22:35.144Z,82.35
2018-04-24T01:24:28.127Z,81.78
2018-04-24T01:25:28.187Z,81.68
2018-04-24T01:27:21.210Z,81.59
2018-04-24T01:28:21.238Z,81.68
2018-04-24T01:30:14.242Z,82.45
2018-04-24T01:31:14.286Z,81.59
2018-04-24T01:33:07.279Z,82.54
2018-04-24T01:34:07.367Z,81.68
2018-04-24T01:36:00.325Z,81.68
2018-04-24T01:37:00.378Z,82.54
2018-04-24T01:38:53.378Z,81.78
2018-04-24T01:39:53.426Z,82.54
2018-04-24T01:41:46.417Z,81.68
2018-04-24T01:42:46.467Z,82.17
2018-04-24T01:44:39.449Z,82.17
2018-04-24T01:45:39.518Z,81.78
2018-04-24T01:47:32.508Z,82.35
2018-04-24T01:48:32.552Z,81.68
2018-04-24T01:50:25.552Z,81.97
2018-04-24T01:51:25.625Z,82.45
2018-04-24T01:53:18.602Z,82.17
2018-04-24T01:54:18.658Z,82.17
2018-04-24T01:56:11.654Z,81.88
2018-04-24T01:57:11.711Z,82.07
2018-04-24T01:59:04.705Z,82.17
2018-04-24T02:00:04.758Z,81.97
2018-04-24T02:01:57.755Z,81.49
2018-04-24T02:02:57.802Z,81.40
2018-04-24T02:04:51.303Z,81.68
2018-04-24T02:05:51.360Z,82.17
2018-04-24T02:07:44.353Z,81.78
2018-04-24T02:08:44.403Z,82.07
2018-04-24T02:10:37.396Z,81.88
2018-04-24T02:11:37.450Z,81.68
2018-04-24T02:13:30.456Z,82.17
2018-04-24T02:14:30.488Z,81.59
2018-04-24T02:16:23.473Z,82.83
2018-04-24T02:17:23.532Z,82.45
2018-04-24T02:19:16.528Z,82.35
2018-04-24T02:20:16.577Z,82.26
2018-04-24T02:22:09.571Z,82.54
2018-04-24T02:23:09.621Z,81.78
2018-04-24T02:25:02.681Z,82.17
2018-04-24T02:26:02.661Z,82.35
2018-04-24T02:27:55.659Z,82.07
2018-04-24T02:28:55.717Z,82.07
2018-04-24T02:30:48.701Z,82.45
2018-04-24T02:31:48.759Z,82.17
2018-04-24T02:33:41.749Z,82.07
2018-04-24T02:34:41.806Z,82.03
2018-04-24T02:36:34.789Z,81.46
2018-04-24T02:37:34.848Z,82.03
2018-04-24T02:39:27.842Z,82.64
2018-04-24T02:40:27.904Z,82.21
2018-04-24T02:42:20.885Z,82.31
2018-04-24T02:43:20.935Z,81.55
2018-04-24T02:45:13.919Z,82.31
2018-04-24T02:46:13.979Z,82.12
2018-04-24T02:48:06.971Z,82.31
2018-04-24T02:49:07.024Z,82.41
2018-04-24T02:51:00.029Z,82.21
2018-04-24T02:52:00.071Z,82.21
2018-04-24T02:53:53.064Z,82.89
2018-04-24T02:54:53.117Z,82.41
2018-04-24T02:56:46.100Z,82.31
2018-04-24T02:57:46.418Z,81.74
2018-04-24T02:59:39.152Z,82.69
2018-04-24T03:00:39.201Z,82.21
2018-04-24T03:02:32.194Z,82.79
2018-04-24T03:03:32.242Z,82.21
2018-04-24T03:05:25.735Z,82.98
2018-04-24T03:06:25.793Z,82.31
2018-04-24T03:08:18.781Z,82.41
2018-04-24T03:09:18.837Z,82.41
2018-04-24T03:11:11.823Z,82.12
2018-04-24T03:12:11.880Z,82.50
2018-04-24T03:14:05.379Z,82.41
2018-04-24T03:15:05.428Z,82.21
2018-04-24T03:16:58.415Z,82.41
2018-04-24T03:17:58.477Z,82.31
2018-04-24T03:19:51.469Z,82.60
2018-04-24T03:20:51.518Z,82.50
2018-04-24T03:22:44.502Z,82.31
2018-04-24T03:23:44.558Z,82.60
2018-04-24T03:25:37.554Z,82.89
2018-04-24T03:26:37.606Z,82.89
2018-04-24T03:28:30.588Z,82.50
2018-04-24T03:29:30.648Z,81.89
2018-04-24T03:31:23.642Z,82.98
2018-04-24T03:32:23.700Z,82.27
2018-04-24T03:34:16.685Z,82.41
2018-04-24T03:35:16.735Z,82.65
2018-04-24T03:37:10.230Z,82.21
2018-04-24T03:38:10.285Z,82.65
2018-04-24T03:40:03.275Z,82.31
2018-04-24T03:41:03.329Z,82.31
2018-04-24T03:42:56.321Z,82.56
2018-04-24T03:43:56.374Z,82.84
2018-04-24T03:45:49.371Z,82.46
2018-04-24T03:46:49.424Z,82.37
2018-04-24T03:48:42.408Z,82.18
2018-04-24T03:49:42.471Z,82.37
2018-04-24T03:51:35.463Z,82.27
2018-04-24T03:52:35.517Z,83.03
2018-04-24T03:54:28.522Z,82.41
2018-04-24T03:55:28.563Z,83.03
2018-04-24T03:57:21.659Z,82.69
2018-04-24T03:58:21.606Z,82.65
2018-04-24T04:00:14.605Z,82.50
2018-04-24T04:01:14.651Z,82.46
2018-04-24T04:03:07.632Z,82.75
2018-04-24T04:04:07.692Z,83.26
2018-04-24T04:06:00.686Z,82.79
2018-04-24T04:07:00.740Z,82.89
2018-04-24T04:08:53.722Z,83.07
2018-04-24T04:09:53.777Z,82.60
2018-04-24T04:11:46.771Z,82.50
2018-04-24T04:12:46.820Z,82.98
2018-04-24T04:14:39.800Z,82.89
2018-04-24T04:15:39.863Z,82.89
2018-04-24T04:17:32.854Z,83.17
2018-04-24T04:18:32.904Z,82.98
2018-04-24T04:20:25.915Z,82.79
2018-04-24T04:21:25.964Z,82.79
2018-04-24T04:23:18.947Z,83.07
2018-04-24T04:24:19.005Z,83.07
2018-04-24T04:26:11.995Z,83.07
2018-04-24T04:27:12.048Z,82.69
2018-04-24T04:29:05.031Z,83.07
2018-04-24T04:30:05.091Z,83.55
2018-04-24T04:31:58.083Z,82.54
2018-04-24T04:32:58.227Z,83.50
2018-04-24T04:34:51.119Z,82.89
2018-04-24T04:35:51.178Z,83.36
2018-04-24T04:37:44.678Z,82.73
2018-04-24T04:38:44.729Z,83.17
2018-04-24T04:40:37.725Z,82.60
2018-04-24T04:41:37.770Z,82.41
2018-04-24T04:43:30.758Z,83.12
2018-04-24T04:44:30.816Z,82.69
2018-04-24T04:46:23.811Z,83.12
2018-04-24T04:47:23.858Z,82.73
2018-04-24T04:49:16.842Z,83.12
2018-04-24T04:50:16.904Z,83.12
2018-04-24T04:52:09.891Z,82.45
2018-04-24T04:53:09.943Z,82.73
2018-04-24T04:55:02.928Z,82.64
2018-04-24T04:56:03.007Z,82.92
2018-04-24T04:57:55.980Z,83.12
2018-04-24T04:58:56.028Z,83.12
2018-04-24T05:00:49.016Z,82.83
2018-04-24T05:01:49.069Z,83.12
2018-04-24T05:03:42.065Z,83.21
2018-04-24T05:04:42.113Z,82.64
2018-04-24T05:06:35.096Z,82.73
2018-04-24T05:07:35.158Z,82.83
2018-04-24T05:09:28.146Z,82.45
2018-04-24T05:10:28.200Z,83.02
2018-04-24T05:12:21.193Z,83.02
2018-04-24T05:13:21.242Z,82.73
2018-04-24T05:15:14.227Z,82.83
2018-04-24T05:16:14.287Z,82.92
2018-04-24T05:18:07.279Z,82.83
2018-04-24T05:19:07.331Z,82.83
2018-04-24T05:21:00.325Z,83.21
2018-04-24T05:22:00.389Z,82.92
2018-04-24T05:23:53.375Z,82.64
2018-04-24T05:24:53.429Z,82.92
2018-04-24T05:26:46.416Z,82.92
2018-04-24T05:27:46.473Z,82.64
2018-04-24T05:29:39.466Z,82.92
2018-04-24T05:30:39.515Z,82.92
2018-04-24T05:32:32.517Z,83.12
2018-04-24T05:33:32.564Z,82.73
2018-04-24T05:35:25.546Z,82.83
2018-04-24T05:36:25.608Z,82.54
2018-04-24T05:38:18.600Z,82.73
2018-04-24T05:39:18.652Z,82.64
2018-04-24T05:41:11.633Z,83.31
2018-04-24T05:42:11.694Z,83.12
2018-04-24T05:44:04.683Z,82.54
2018-04-24T05:45:04.736Z,82.45
2018-04-24T05:46:57.722Z,82.68
2018-04-24T05:47:57.772Z,83.73
2018-04-24T05:49:50.769Z,82.59
2018-04-24T05:50:50.822Z,82.68
2018-04-24T05:52:43.806Z,82.78
2018-04-24T05:53:43.866Z,82.68
2018-04-24T05:55:36.859Z,82.78
2018-04-24T05:56:36.915Z,82.68
2018-04-24T05:58:29.902Z,82.68
2018-04-24T05:59:30.001Z,82.49
2018-04-24T06:01:22.940Z,82.49
2018-04-24T06:02:23.003Z,82.78
2018-04-24T06:04:15.994Z,82.87
2018-04-24T06:05:16.051Z,82.49
2018-04-24T06:07:09.031Z,82.59
2018-04-24T06:08:09.090Z,82.59
2018-04-24T06:10:02.086Z,82.49
2018-04-24T06:11:02.137Z,82.97
2018-04-24T06:12:55.154Z,82.49
2018-04-24T06:13:55.180Z,82.78
2018-04-24T06:15:48.173Z,83.06
2018-04-24T06:16:48.225Z,82.87
2018-04-24T06:18:41.220Z,82.78
2018-04-24T06:19:41.268Z,83.06
2018-04-24T06:21:34.252Z,81.73
2018-04-24T06:22:34.360Z,82.30
2018-04-24T06:24:27.311Z,82.59
2018-04-24T06:25:27.376Z,82.40
2018-04-24T06:27:20.346Z,83.25
2018-04-24T06:28:20.427Z,82.78
2018-04-24T06:30:13.395Z,82.30
2018-04-24T06:31:13.448Z,82.97
2018-04-24T06:33:06.432Z,82.40
2018-04-24T06:34:06.492Z,82.59
2018-04-24T06:35:59.552Z,82.87
2018-04-24T06:36:59.536Z,82.97
2018-04-24T06:38:52.538Z,82.40
2018-04-24T06:39:52.579Z,81.82
2018-04-24T06:41:45.573Z,83.25
2018-04-24T06:42:45.622Z,82.68
2018-04-24T06:44:38.615Z,82.20
2018-04-24T06:45:38.668Z,82.97
2018-04-24T06:47:31.649Z,81.82
2018-04-24T06:48:31.709Z,81.35
2018-04-24T06:50:24.714Z,81.54
2018-04-24T06:51:24.757Z,82.40
2018-04-24T06:53:17.741Z,82.40
2018-04-24T06:54:17.801Z,82.49
2018-04-24T06:56:10.798Z,81.63
2018-04-24T06:57:10.847Z,82.40
2018-04-24T06:59:03.838Z,82.01
2018-04-24T07:00:03.892Z,82.97
2018-04-24T07:01:56.886Z,81.86
2018-04-24T07:02:56.936Z,82.91
2018-04-24T07:04:49.934Z,83.01
2018-04-24T07:05:49.981Z,82.63
2018-04-24T07:07:42.968Z,82.24
2018-04-24T07:08:43.027Z,82.63
2018-04-24T07:10:36.529Z,81.96
2018-04-24T07:11:36.582Z,83.01
2018-04-24T07:13:29.562Z,82.43
2018-04-24T07:14:29.623Z,81.58
2018-04-24T07:16:22.619Z,82.43
2018-04-24T07:17:22.679Z,82.82
2018-04-24T07:19:15.655Z,82.63
2018-04-24T07:20:15.712Z,82.82
2018-04-24T07:22:08.793Z,82.82
2018-04-24T07:23:08.759Z,82.53
2018-04-24T07:25:01.743Z,82.24
2018-04-24T07:26:01.803Z,82.91
2018-04-24T07:27:54.798Z,82.34
2018-04-24T07:28:54.855Z,82.63
2018-04-24T07:30:47.855Z,82.15
2018-04-24T07:31:47.908Z,83.11
2018-04-24T07:33:40.900Z,81.48
2018-04-24T07:34:40.962Z,82.43
2018-04-24T07:36:33.947Z,81.67
2018-04-24T07:37:34.003Z,82.34
2018-04-24T07:39:26.990Z,82.82
2018-04-24T07:40:27.052Z,82.19
2018-04-24T07:42:20.047Z,82.57
2018-04-24T07:43:20.099Z,82.57
2018-04-24T07:45:13.083Z,82.57
2018-04-24T07:46:13.142Z,82.57
2018-04-24T07:48:06.137Z,82.00
2018-04-24T07:49:06.186Z,82.38
2018-04-24T07:50:59.182Z,82.29
2018-04-24T07:51:59.231Z,82.57
2018-04-24T07:53:52.215Z,82.14
2018-04-24T07:54:52.275Z,82.04
2018-04-24T07:56:45.271Z,82.42
2018-04-24T07:57:45.330Z,82.28
2018-04-24T07:59:38.308Z,82.84
2018-04-24T08:00:38.369Z,81.99
2018-04-24T08:02:31.366Z,82.18
2018-04-24T08:03:31.418Z,82.08
2018-04-24T08:05:24.419Z,82.56
2018-04-24T08:06:24.476Z,81.89
2018-04-24T08:08:17.537Z,81.41
2018-04-24T08:09:17.534Z,81.60
2018-04-24T08:11:11.032Z,81.32
2018-04-24T08:12:11.092Z,81.70
2018-04-24T08:14:04.083Z,81.84
2018-04-24T08:15:04.139Z,81.60
2018-04-24T08:16:57.135Z,81.79
2018-04-24T08:17:57.186Z,81.13
2018-04-24T08:19:50.178Z,80.93
2018-04-24T08:20:50.234Z,81.60
2018-04-24T08:22:43.231Z,81.13
2018-04-24T08:23:43.285Z,81.79
2018-04-24T08:25:36.272Z,82.08
2018-04-24T08:26:36.336Z,81.89
2018-04-24T08:28:29.333Z,80.90
2018-04-24T08:29:29.389Z,81.47
2018-04-24T08:31:22.375Z,82.04
2018-04-24T08:32:22.436Z,81.37
2018-04-24T08:34:15.432Z,81.47
2018-04-24T08:35:15.486Z,81.85
2018-04-24T08:37:08.500Z,80.80
2018-04-24T08:38:08.547Z,81.76
2018-04-24T08:40:01.623Z,81.27
2018-04-24T08:41:01.595Z,81.66
2018-04-24T08:42:54.590Z,81.99
2018-04-24T08:43:54.647Z,81.32
2018-04-24T08:45:47.634Z,81.89
2018-04-24T08:46:47.697Z,81.32
2018-04-24T08:48:40.688Z,81.89
2018-04-24T08:49:40.752Z,81.79
2018-04-24T08:51:33.742Z,81.79
2018-04-24T08:52:33.803Z,81.99
2018-04-24T08:54:26.803Z,81.79
2018-04-24T08:55:26.886Z,81.70
2018-04-24T08:57:19.857Z,81.51
2018-04-24T08:58:19.917Z,81.13
2018-04-24T09:00:12.915Z,81.99
2018-04-24T09:01:12.975Z,81.22
2018-04-24T09:03:05.970Z,80.98
2018-04-24T09:04:06.025Z,82.12
2018-04-24T09:05:59.021Z,81.93
2018-04-24T09:06:59.079Z,81.36
2018-04-24T09:08:52.075Z,81.65
2018-04-24T09:09:52.134Z,81.55
2018-04-24T09:11:45.120Z,81.16
2018-04-24T09:12:45.181Z,81.78
2018-04-24T09:14:38.174Z,81.88
2018-04-24T09:15:38.226Z,81.68
2018-04-24T09:17:31.227Z,81.40
2018-04-24T09:18:31.276Z,80.35
2018-04-24T09:20:24.267Z,81.25
2018-04-24T09:21:24.326Z,80.96
2018-04-24T09:23:17.323Z,81.40
2018-04-24T09:24:17.377Z,80.44
2018-04-24T09:26:10.372Z,80.54
2018-04-24T09:27:10.500Z,81.11
2018-04-24T09:29:03.421Z,80.63
2018-04-24T09:30:03.476Z,81.68
2018-04-24T09:31:56.467Z,81.21
2018-04-24T09:32:56.525Z,81.11
2018-04-24T09:34:49.522Z,81.40
2018-04-24T09:35:49.573Z,81.21
2018-04-24T09:37:42.574Z,80.63
2018-04-24T09:38:42.625Z,81.02
2018-04-24T09:40:35.614Z,81.02
2018-04-24T09:41:35.675Z,80.59
2018-04-24T09:43:28.673Z,80.98
2018-04-24T09:44:28.728Z,81.03
2018-04-24T09:46:21.718Z,80.93
2018-04-24T09:47:21.779Z,80.88
2018-04-24T09:49:14.777Z,80.98
2018-04-24T09:50:14.831Z,81.26
2018-04-24T09:52:07.842Z,80.98
2018-04-24T09:53:07.902Z,81.65
2018-04-24T09:55:00.900Z,81.21
2018-04-24T09:56:00.956Z,81.49
2018-04-24T09:57:53.945Z,81.63
2018-04-24T09:58:54.008Z,81.44
2018-04-24T10:00:46.993Z,81.25
2018-04-24T10:01:47.055Z,81.54
2018-04-24T10:03:40.048Z,80.63
2018-04-24T10:04:40.105Z,80.63
2018-04-24T10:06:33.093Z,80.16
2018-04-24T10:07:33.154Z,81.30
2018-04-24T10:09:26.156Z,80.82
2018-04-24T10:10:26.212Z,80.92
2018-04-24T10:12:19.211Z,80.16
2018-04-24T10:13:19.267Z,80.92
2018-04-24T10:15:12.268Z,81.21
2018-04-24T10:16:12.325Z,80.35
2018-04-24T10:18:05.321Z,81.44
2018-04-24T10:19:05.379Z,81.63
2018-04-24T10:20:58.373Z,80.38
2018-04-24T10:21:58.434Z,81.34
2018-04-24T10:23:51.444Z,81.02
2018-04-24T10:24:51.499Z,80.54
2018-04-24T10:26:44.489Z,81.02
2018-04-24T10:27:44.555Z,81.21
2018-04-24T10:29:37.549Z,80.63
2018-04-24T10:30:37.602Z,81.30
2018-04-24T10:32:30.599Z,81.11
2018-04-24T10:33:30.655Z,80.82
2018-04-24T10:35:23.650Z,81.30
2018-04-24T10:36:23.704Z,81.21
2018-04-24T10:38:16.695Z,81.25
2018-04-24T10:39:16.751Z,80.63
2018-04-24T10:41:09.742Z,80.16
2018-04-24T10:42:09.803Z,80.48
2018-04-24T10:44:02.800Z,81.25
2018-04-24T10:45:02.853Z,81.25
2018-04-24T10:46:55.845Z,80.77
2018-04-24T10:47:55.932Z,80.29
2018-04-24T10:49:48.907Z,80.58
2018-04-24T10:50:48.959Z,80.58
2018-04-24T10:52:41.945Z,80.52
2018-04-24T10:53:42.009Z,81.54
2018-04-24T10:55:35.005Z,80.77
2018-04-24T10:56:35.060Z,80.87
2018-04-24T10:58:28.065Z,81.10
2018-04-24T10:59:28.111Z,81.57
2018-04-24T11:01:21.109Z,80.90
2018-04-24T11:02:21.165Z,80.56
2018-04-24T11:04:14.161Z,81.10
2018-04-24T11:05:14.219Z,80.47
2018-04-24T11:07:07.207Z,80.43
2018-04-24T11:08:07.267Z,80.33
2018-04-24T11:10:00.271Z,80.14
2018-04-24T11:11:00.323Z,80.52
2018-04-24T11:12:53.315Z,80.19
2018-04-24T11:13:53.379Z,80.33
2018-04-24T11:15:46.375Z,80.56
2018-04-24T11:16:46.436Z,81.10
2018-04-24T11:18:39.426Z,81.10
2018-04-24T11:19:39.482Z,80.43
2018-04-24T11:21:32.479Z,80.19
2018-04-24T11:22:32.534Z,80.24
2018-04-24T11:24:25.536Z,80.38
2018-04-24T11:25:25.589Z,79.91
2018-04-24T11:27:18.594Z,81.05
2018-04-24T11:28:18.651Z,81.15
2018-04-24T11:30:11.684Z,81.15
2018-04-24T11:31:11.700Z,80.71
2018-04-24T11:33:04.698Z,80.81
2018-04-24T11:34:04.760Z,80.62
2018-04-24T11:35:57.834Z,81.67
2018-04-24T11:36:57.807Z,80.90
2018-04-24T11:38:50.801Z,79.85
2018-04-24T11:39:50.856Z,80.43
2018-04-24T11:41:43.847Z,80.37
2018-04-24T11:42:43.908Z,81.33
2018-04-24T11:44:36.906Z,80.27
2018-04-24T11:45:36.963Z,80.66
2018-04-24T11:47:29.953Z,79.89
2018-04-24T11:48:30.015Z,79.51
2018-04-24T11:50:23.018Z,80.14
2018-04-24T11:51:23.069Z,80.43
2018-04-24T11:53:16.057Z,80.04
2018-04-24T11:54:16.119Z,80.04
2018-04-24T11:56:09.118Z,80.24
2018-04-24T11:57:09.219Z,80.24
2018-04-24T11:59:02.189Z,80.81
2018-04-24T12:00:02.251Z,80.33
2018-04-24T12:01:55.235Z,81.29
2018-04-24T12:02:55.391Z,80.90
2018-04-24T12:04:48.333Z,80.33
2018-04-24T12:05:48.392Z,80.24
2018-04-24T12:07:41.385Z,80.19
2018-04-24T12:08:41.444Z,80.00
2018-04-24T12:10:34.947Z,81.34
2018-04-24T12:11:35.006Z,81.05
2018-04-24T12:13:27.989Z,81.00
2018-04-24T12:14:28.064Z,81.10
2018-04-24T12:16:21.052Z,80.81
2018-04-24T12:17:21.104Z,80.04
2018-04-24T12:19:14.118Z,81.52
2018-04-24T12:20:14.158Z,80.85
2018-04-24T12:22:07.141Z,80.47
2018-04-24T12:23:07.216Z,80.66
2018-04-24T12:25:00.204Z,80.18
2018-04-24T12:26:00.259Z,80.66
2018-04-24T12:27:53.250Z,80.37
2018-04-24T12:28:53.312Z,80.41
2018-04-24T12:30:46.327Z,80.32
2018-04-24T12:31:46.368Z,80.70
2018-04-24T12:33:39.360Z,79.59
2018-04-24T12:34:39.422Z,80.03
2018-04-24T12:36:32.421Z,78.97
2018-04-24T12:37:32.477Z,80.70
2018-04-24T12:39:25.483Z,80.18
2018-04-24T12:40:25.530Z,80.32
2018-04-24T12:42:18.522Z,80.08
2018-04-24T12:43:18.584Z,80.37
2018-04-24T12:45:11.677Z,80.56
2018-04-24T12:46:11.645Z,80.04
2018-04-24T12:48:04.644Z,80.18
2018-04-24T12:49:04.701Z,80.37
2018-04-24T12:50:57.700Z,80.37
2018-04-24T12:51:57.758Z,79.80
2018-04-24T12:53:50.750Z,80.51
2018-04-24T12:54:50.817Z,80.60
2018-04-24T12:56:43.822Z,80.99
2018-04-24T12:57:43.892Z,80.51
2018-04-24T12:59:36.918Z,80.41
2018-04-24T13:00:36.935Z,80.60
2018-04-24T13:02:29.935Z,80.47
2018-04-24T13:03:29.991Z,80.76
2018-04-24T13:05:22.990Z,80.22
2018-04-24T13:06:23.052Z,79.74
2018-04-24T13:08:16.058Z,80.47
2018-04-24T13:09:16.102Z,80.27
2018-04-24T13:11:09.607Z,80.37
2018-04-24T13:12:09.662Z,80.76
2018-04-24T13:14:02.652Z,80.62
2018-04-24T13:15:02.721Z,80.24
2018-04-24T13:16:55.712Z,81.38
2018-04-24T13:17:55.771Z,80.33
2018-04-24T13:19:48.757Z,80.14
2018-04-24T13:20:48.824Z,81.00
2018-04-24T13:22:41.836Z,80.10
2018-04-24T13:23:41.892Z,80.00
2018-04-24T13:25:34.946Z,80.29
2018-04-24T13:26:34.945Z,80.77
2018-04-24T13:28:27.942Z,81.05
2018-04-24T13:29:27.996Z,80.10
2018-04-24T13:31:21.003Z,81.05
2018-04-24T13:32:21.049Z,80.29
2018-04-24T13:34:14.038Z,80.48
2018-04-24T13:35:14.103Z,80.77
2018-04-24T13:37:07.148Z,80.10
2018-04-24T13:38:07.152Z,80.77
2018-04-24T13:40:00.142Z,81.05
2018-04-24T13:41:00.203Z,81.05
2018-04-24T13:42:53.196Z,80.87
2018-04-24T13:43:53.256Z,80.67
2018-04-24T13:45:46.252Z,80.38
2018-04-24T13:46:46.311Z,80.87
2018-04-24T13:48:39.306Z,80.82
2018-04-24T13:49:39.362Z,80.77
2018-04-24T13:51:32.360Z,80.58
2018-04-24T13:52:32.414Z,80.96
2018-04-24T13:54:25.401Z,80.38
2018-04-24T13:55:25.515Z,81.44
2018-04-24T13:57:18.464Z,80.77
2018-04-24T13:58:18.532Z,81.44
2018-04-24T14:00:11.505Z,80.96
2018-04-24T14:01:11.564Z,81.05
2018-04-24T14:03:04.563Z,81.10
2018-04-24T14:04:04.616Z,81.15
2018-04-24T14:05:57.607Z,80.96
2018-04-24T14:06:57.671Z,81.29
2018-04-24T14:08:50.654Z,80.90
2018-04-24T14:09:50.717Z,80.90
2018-04-24T14:11:43.714Z,80.52
2018-04-24T14:12:43.769Z,80.90
2018-04-24T14:14:36.774Z,81.00
2018-04-24T14:15:36.833Z,81.00
2018-04-24T14:17:29.832Z,81.00
2018-04-24T14:18:29.887Z,80.90
2018-04-24T14:20:22.878Z,80.90
2018-04-24T14:21:22.945Z,80.90
2018-04-24T14:23:15.938Z,80.90
2018-04-24T14:24:15.995Z,80.71
2018-04-24T14:26:08.993Z,81.29
2018-04-24T14:27:09.044Z,81.00
2018-04-24T14:29:02.035Z,81.29
2018-04-24T14:30:02.098Z,81.10
2018-04-24T14:31:55.097Z,81.38
2018-04-24T14:32:55.150Z,81.10
2018-04-24T14:34:48.143Z,81.57
2018-04-24T14:35:48.207Z,80.52
2018-04-24T14:37:41.205Z,81.48
2018-04-24T14:38:41.260Z,81.23
2018-04-24T14:40:34.254Z,80.85
2018-04-24T14:41:34.311Z,80.47
2018-04-24T14:43:27.320Z,80.04
2018-04-24T14:44:27.369Z,80.43
2018-04-24T14:46:20.367Z,80.62
2018-04-24T14:47:20.427Z,80.71
2018-04-24T14:49:13.427Z,80.71
2018-04-24T14:50:13.485Z,81.10
2018-04-24T14:52:06.481Z,80.62
2018-04-24T14:53:06.559Z,80.14
2018-04-24T14:54:59.529Z,81.48
2018-04-24T14:55:59.591Z,80.71
2018-04-24T14:57:52.590Z,81.57
2018-04-24T14:58:52.780Z,81.57
2018-04-24T15:00:45.637Z,81.20
2018-04-24T15:01:45.702Z,80.43
2018-04-24T15:03:38.697Z,81.20
2018-04-24T15:04:38.757Z,81.00
2018-04-24T15:06:31.756Z,81.33
2018-04-24T15:07:31.810Z,81.43
2018-04-24T15:09:24.804Z,81.04
2018-04-24T15:10:24.860Z,81.57
2018-04-24T15:12:17.855Z,81.04
2018-04-24T15:13:17.906Z,81.23
2018-04-24T15:15:10.895Z,80.76
2018-04-24T15:16:10.958Z,81.04
2018-04-24T15:18:03.955Z,80.52
2018-04-24T15:19:04.013Z,81.20
2018-04-24T15:20:57.005Z,81.00
2018-04-24T15:21:57.067Z,80.14
2018-04-24T15:23:50.071Z,81.38
2018-04-24T15:24:50.123Z,80.56
2018-04-24T15:26:43.127Z,80.90
2018-04-24T15:27:43.171Z,81.10
2018-04-24T15:29:36.169Z,81.43
2018-04-24T15:30:36.224Z,81.00
2018-04-24T15:32:29.222Z,80.24
2018-04-24T15:33:29.282Z,80.47
2018-04-24T15:35:22.267Z,80.37
2018-04-24T15:36:22.379Z,81.43
2018-04-24T15:38:15.335Z,80.33
2018-04-24T15:39:15.388Z,81.52
2018-04-24T15:41:08.377Z,81.00
2018-04-24T15:42:08.441Z,80.94
2018-04-24T15:44:01.439Z,81.00
2018-04-24T15:45:01.491Z,80.47
2018-04-24T15:46:54.482Z,79.99
2018-04-24T15:47:54.552Z,81.23
2018-04-24T15:49:47.541Z,81.33
2018-04-24T15:50:47.600Z,80.94
2018-04-24T15:52:40.586Z,80.47
2018-04-24T15:53:40.649Z,80.37
2018-04-24T15:55:33.641Z,80.47
2018-04-24T15:56:33.698Z,80.37
2018-04-24T15:58:26.694Z,80.18
2018-04-24T15:59:26.750Z,80.47
2018-04-24T16:01:19.748Z,81.23
2018-04-24T16:02:19.806Z,80.47
2018-04-24T16:04:12.805Z,80.51
2018-04-24T16:05:12.859Z,80.03
2018-04-24T16:07:05.850Z,80.70
2018-04-24T16:08:05.913Z,79.36
2018-04-24T16:09:58.920Z,80.70
2018-04-24T16:10:58.976Z,80.79
2018-04-24T16:12:51.967Z,80.85
2018-04-24T16:13:52.034Z,79.89
2018-04-24T16:15:45.051Z,81.27
2018-04-24T16:16:45.081Z,80.70
2018-04-24T16:18:38.088Z,79.13
2018-04-24T16:19:38.195Z,80.22
2018-04-24T16:21:31.171Z,79.89
2018-04-24T16:22:31.198Z,80.76
2018-04-24T16:24:24.202Z,79.99
2018-04-24T16:25:24.260Z,80.47
2018-04-24T16:27:17.767Z,80.47
2018-04-24T16:28:17.817Z,80.56
2018-04-24T16:30:10.834Z,81.52
2018-04-24T16:31:10.871Z,81.13
2018-04-24T16:33:03.862Z,80.33
2018-04-24T16:34:03.924Z,81.52
2018-04-24T16:35:56.920Z,80.24
2018-04-24T16:36:56.977Z,81.23
2018-04-24T16:38:49.969Z,80.37
2018-04-24T16:39:50.040Z,80.76
2018-04-24T16:41:43.032Z,80.56
2018-04-24T16:42:43.086Z,81.04
2018-04-24T16:44:36.085Z,81.33
2018-04-24T16:45:36.144Z,80.66
2018-04-24T16:47:29.134Z,80.56
2018-04-24T16:48:29.198Z,80.37
2018-04-24T16:50:22.195Z,81.13
2018-04-24T16:51:22.250Z,81.23
2018-04-24T16:53:15.244Z,80.56
2018-04-24T16:54:15.311Z,80.66
2018-04-24T16:56:08.843Z,80.33
2018-04-24T16:57:08.359Z,81.33
2018-04-24T16:59:01.350Z,81.52
2018-04-24T17:00:01.413Z,80.08
2018-04-24T17:01:54.409Z,80.90
2018-04-24T17:02:54.465Z,81.04
2018-04-24T17:04:47.462Z,81.23
2018-04-24T17:05:47.517Z,81.33
2018-04-24T17:07:40.504Z,80.62
2018-04-24T17:08:40.568Z,81.13
2018-04-24T17:10:33.560Z,80.47
2018-04-24T17:11:33.624Z,80.94
2018-04-24T17:13:26.611Z,81.43
2018-04-24T17:14:26.687Z,80.47
2018-04-24T17:16:19.670Z,81.00
2018-04-24T17:17:19.727Z,81.77
2018-04-24T17:19:12.714Z,80.90
2018-04-24T17:20:12.779Z,81.20
2018-04-24T17:22:05.772Z,81.38
2018-04-24T17:23:05.857Z,80.90
2018-04-24T17:24:58.826Z,80.52
2018-04-24T17:25:58.898Z,81.20
2018-04-24T17:27:51.888Z,81.48
2018-04-24T17:28:51.945Z,81.20
2018-04-24T17:30:44.978Z,80.04
2018-04-24T17:31:44.993Z,81.00
2018-04-24T17:33:37.995Z,81.10
2018-04-24T17:34:38.051Z,81.48
2018-04-24T17:36:31.051Z,80.90
2018-04-24T17:37:31.106Z,80.90
2018-04-24T17:39:24.094Z,81.86
2018-04-24T17:40:24.157Z,81.20
2018-04-24T17:42:17.163Z,80.90
2018-04-24T17:43:17.220Z,81.00
2018-04-24T17:45:10.212Z,81.10
2018-04-24T17:46:10.292Z,80.90
2018-04-24T17:48:03.273Z,81.15
2018-04-24T17:49:03.340Z,81.25
2018-04-24T17:50:56.824Z,81.05
2018-04-24T17:51:56.881Z,80.87
2018-04-24T17:53:49.871Z,80.87
2018-04-24T17:54:49.935Z,81.15
2018-04-24T17:56:42.985Z,81.15
2018-04-24T17:57:42.980Z,80.96
2018-04-24T17:59:37.490Z,81.25
2018-04-24T18:00:37.578Z,80.58
2018-04-24T18:02:30.551Z,80.87
2018-04-24T18:03:30.615Z,81.05
2018-04-24T18:05:23.660Z,80.67
2018-04-24T18:06:23.655Z,81.15
2018-04-24T18:08:16.649Z,81.25
2018-04-24T18:09:16.707Z,81.63
2018-04-24T18:11:09.721Z,81.15
2018-04-24T18:12:09.805Z,81.25
2018-04-24T18:14:02.754Z,81.44
2018-04-24T18:15:02.817Z,81.34
2018-04-24T18:16:55.815Z,81.63
2018-04-24T18:17:55.870Z,80.87
2018-04-24T18:19:48.857Z,80.77
2018-04-24T18:20:48.919Z,80.96
2018-04-24T18:22:41.936Z,81.21
2018-04-24T18:23:41.997Z,81.25
2018-04-24T18:25:34.965Z,81.15
2018-04-24T18:26:35.028Z,80.96
2018-04-24T18:28:28.024Z,81.92
2018-04-24T18:29:28.080Z,81.44
2018-04-24T18:31:21.076Z,81.30
2018-04-24T18:32:21.136Z,81.30
2018-04-24T18:34:14.210Z,82.35